Time;durP1;ratioP1;P1;durP2;ratioP2;P2;SDS_P1;SDS_P2;PMS_P1;PMS_P2;Temp;Humidity;BMP_temperature;BMP_pressure;BME280_temperature;BME280_humidity;BME280_pressure;Samples;Min_cycle;Max_cycle;Signal;HPM_P1;HPM_P2
2021/09/22 00:00:49;;;;;;;28.47;12.03;;;;;;;10.08;81.57;101292.33;1802711;79;21023;-79
2021/09/22 00:03:15;;;;;;;32.83;15.05;;;;;;;10.08;81.63;101293.66;1790288;80;21542;-79
2021/09/22 00:05:41;;;;;;;21.60;11.83;;;;;;;10.08;81.68;101294.99;1803032;79;21422;-80
2021/09/22 00:08:07;;;;;;;22.48;10.88;;;;;;;10.09;81.72;101286.02;1790896;80;21014;-79
2021/09/22 00:10:33;;;;;;;25.82;12.65;;;;;;;10.10;81.77;101289.53;1802958;79;21331;-79
2021/09/22 00:12:59;;;;;;;20.00;10.13;;;;;;;10.10;81.82;101285.02;1790869;79;20898;-80
2021/09/22 00:15:25;;;;;;;14.80;9.65;;;;;;;10.10;81.88;101282.34;1803047;79;21122;-79
2021/09/22 00:17:51;;;;;;;10.68;7.58;;;;;;;10.12;81.92;101278.22;1790697;80;20983;-79
2021/09/22 00:20:23;;;;;;;13.03;8.50;;;;;;;10.11;81.94;101277.37;1803248;79;21484;-79
2021/09/22 00:22:46;;;;;;;14.55;9.08;;;;;;;10.11;81.99;101274.71;1790690;80;21521;-79
2021/09/22 00:25:12;;;;;;;14.40;8.83;;;;;;;10.13;82.03;101270.09;1803146;79;21047;-79
2021/09/22 00:27:38;;;;;;;12.23;9.18;;;;;;;10.12;82.06;101260.41;1790978;78;21133;-79
2021/09/22 00:30:06;;;;;;;19.05;11.88;;;;;;;10.11;82.11;101253.39;1802909;79;20973;-79
2021/09/22 00:32:32;;;;;;;14.10;9.25;;;;;;;10.12;82.13;101258.23;1790738;79;21041;-80
2021/09/22 00:34:58;;;;;;;12.95;8.30;;;;;;;10.13;82.19;101251.92;1790729;79;21078;-80
2021/09/22 00:37:24;;;;;;;21.00;10.13;;;;;;;10.13;82.19;101243.93;1791155;79;20976;-80
2021/09/22 00:39:50;;;;;;;17.35;10.10;;;;;;;10.13;82.25;101244.77;1802799;79;21153;-79
2021/09/22 00:42:16;;;;;;;16.45;8.10;;;;;;;10.13;82.28;101228.78;1814195;78;21081;-79
2021/09/22 00:44:55;;;;;;;14.03;7.75;;;;;;;10.14;82.32;101232.26;1850919;77;20971;-80
2021/09/22 00:47:25;;;;;;;16.02;9.05;;;;;;;10.13;82.34;101234.11;1817653;79;20982;-80
2021/09/22 00:49:51;;;;;;;20.10;10.60;;;;;;;10.13;82.37;101235.94;1816825;79;21388;-79
2021/09/22 00:52:18;;;;;;;14.73;9.03;;;;;;;10.12;82.42;101227.09;1819269;78;21981;-80
2021/09/22 00:54:45;;;;;;;10.80;8.13;;;;;;;10.11;82.45;101230.73;1817593;79;21022;-79
2021/09/22 00:57:12;;;;;;;9.35;7.17;;;;;;;10.12;82.50;101227.09;1819250;78;20987;-79
2021/09/22 00:59:38;;;;;;;8.50;6.80;;;;;;;10.14;82.53;101227.80;1817556;79;20999;-79
2021/09/22 01:02:05;;;;;;;8.98;7.50;;;;;;;10.15;82.55;101222.83;1819190;78;20975;-79
2021/09/22 01:04:31;;;;;;;11.70;7.33;;;;;;;10.16;82.58;101222.34;1817605;79;21116;-79
2021/09/22 01:06:57;;;;;;;9.05;6.83;;;;;;;10.19;82.62;101227.38;1819461;78;21007;-79
2021/09/22 01:09:23;;;;;;;10.15;6.60;;;;;;;10.20;82.66;101223.24;1817849;79;21498;-79
2021/09/22 01:11:49;;;;;;;10.10;7.05;;;;;;;10.21;82.68;101220.90;1819016;78;20992;-79
2021/09/22 01:14:15;;;;;;;7.20;5.58;;;;;;;10.21;82.72;101214.23;1817340;79;21010;-79
2021/09/22 01:16:45;;;;;;;7.20;5.42;;;;;;;10.22;82.73;101213.26;1819157;78;21152;-79
2021/09/22 01:19:11;;;;;;;8.40;5.55;;;;;;;10.22;82.74;101211.08;1817466;79;20967;-79
2021/09/22 01:21:43;;;;;;;8.95;5.92;;;;;;;10.23;82.78;101212.77;1819029;78;21054;-79
2021/09/22 01:24:09;;;;;;;10.65;6.15;;;;;;;10.25;82.81;101215.63;1817606;79;21019;-79
2021/09/22 01:26:35;;;;;;;11.78;7.55;;;;;;;10.28;82.85;101216.66;1817353;79;21026;-79
2021/09/22 01:29:01;;;;;;;7.37;6.30;;;;;;;10.28;82.89;101211.33;1817736;79;21146;-78
2021/09/22 01:31:27;;;;;;;8.08;6.60;;;;;;;10.29;82.91;101209.50;1818849;78;20972;-79
2021/09/22 01:33:55;;;;;;;6.87;6.03;;;;;;;10.28;82.93;101195.33;1817138;79;21081;-79
2021/09/22 01:36:21;;;;;;;7.97;6.05;;;;;;;10.28;82.95;101200.66;1791596;78;21499;-78
2021/09/22 01:38:47;;;;;;;7.40;5.90;;;;;;;10.28;82.99;101191.33;1817500;79;21605;-78
2021/09/22 01:41:13;;;;;;;8.60;6.65;;;;;;;10.28;83.01;101191.81;1812463;78;21077;-78
2021/09/22 01:43:39;;;;;;;7.85;6.03;;;;;;;10.28;83.03;101195.33;1790450;80;21509;-79
2021/09/22 01:46:07;;;;;;;7.55;5.67;;;;;;;10.31;83.09;101196.36;1803019;79;20972;-79
2021/09/22 01:48:34;;;;;;;7.72;5.87;;;;;;;10.32;83.11;101199.87;1790634;80;20985;-79
2021/09/22 01:51:01;;;;;;;7.35;5.83;;;;;;;10.33;83.13;101196.22;1803206;79;21515;-79
2021/09/22 01:53:27;;;;;;;8.50;6.22;;;;;;;10.34;83.14;101189.42;1790884;79;21182;-79
2021/09/22 01:55:54;;;;;;;9.43;6.08;;;;;;;10.35;83.19;101185.75;1803019;79;20968;-79
2021/09/22 01:58:20;;;;;;;11.35;6.17;;;;;;;10.36;83.20;101187.44;1790974;80;21494;-79
2021/09/22 02:00:46;;;;;;;8.80;6.40;;;;;;;10.35;83.22;101189.75;1802797;79;21621;-79
2021/09/22 02:03:14;;;;;;;8.10;6.65;;;;;;;10.32;83.24;101191.38;1790980;79;20934;-79
2021/09/22 02:05:40;;;;;;;9.30;6.72;;;;;;;10.32;83.27;101191.38;1802390;79;21335;-78
2021/09/22 02:15:04;;;;;;;10.30;7.97;;;;;;;10.37;83.38;101183.79;1817930;79;22671;-77
2021/09/22 02:17:31;;;;;;;8.70;7.28;;;;;;;10.34;83.40;101182.76;1790930;80;21045;-77
2021/09/22 02:19:57;;;;;;;9.03;7.75;;;;;;;10.33;83.42;101182.41;1791129;80;21116;-79
2021/09/22 02:22:23;;;;;;;10.93;8.68;;;;;;;10.34;83.44;101181.43;1791147;80;20887;-79
2021/09/22 02:24:49;;;;;;;10.48;8.90;;;;;;;10.36;83.49;101175.44;1791228;80;20975;-79
2021/09/22 02:27:18;;;;;;;14.25;9.70;;;;;;;10.35;83.50;101167.09;1791047;80;21609;-79
2021/09/22 02:29:44;;;;;;;11.65;9.70;;;;;;;10.36;83.53;101163.44;1791238;80;21483;-79
2021/09/22 02:32:10;;;;;;;13.95;11.35;;;;;;;10.36;83.55;101162.11;1791048;80;21148;-79
2021/09/22 02:34:36;;;;;;;16.75;10.70;;;;;;;10.38;83.59;101161.45;1791117;80;21009;-79
2021/09/22 02:37:03;;;;;;;16.77;12.28;;;;;;;10.39;83.61;101163.13;1790946;80;21034;-79
2021/09/22 02:39:29;;;;;;;22.07;13.90;;;;;;;10.42;83.65;101166.83;1791209;80;21007;-79
2021/09/22 02:41:55;;;;;;;22.85;14.80;;;;;;;10.44;83.69;101176.03;1791178;80;21456;-78
2021/09/22 02:44:22;;;;;;;24.25;15.65;;;;;;;10.46;83.73;101176.21;1791030;80;21214;-79
2021/09/22 02:46:48;;;;;;;23.47;15.40;;;;;;;10.47;83.74;101175.23;1790956;80;21029;-79
2021/09/22 02:49:14;;;;;;;16.48;12.30;;;;;;;10.52;83.77;101180.94;1791058;80;21003;-79
2021/09/22 02:51:40;;;;;;;17.15;11.73;;;;;;;10.54;83.80;101182.13;1791254;80;21042;-79
2021/09/22 02:54:06;;;;;;;14.85;10.95;;;;;;;10.57;83.83;101182.32;1790945;80;20879;-79
2021/09/22 02:56:32;;;;;;;17.25;12.10;;;;;;;10.60;83.85;101179.34;1791149;80;21080;-79
2021/09/22 02:58:58;;;;;;;26.48;19.95;;;;;;;10.62;83.89;101172.89;1791000;80;21056;-79
2021/09/22 03:01:24;;;;;;;22.17;14.20;;;;;;;10.64;83.93;101176.72;1790900;80;21660;-79
2021/09/22 03:03:50;;;;;;;21.68;13.40;;;;;;;10.67;83.94;101176.42;1790952;80;20990;-79
2021/09/22 03:06:16;;;;;;;13.35;10.72;;;;;;;10.70;83.96;101182.78;1791195;80;21776;-79
2021/09/22 03:08:42;;;;;;;17.20;11.80;;;;;;;10.71;83.97;101180.47;1790793;80;21854;-79
2021/09/22 03:11:10;;;;;;;15.55;11.78;;;;;;;10.73;83.99;101176.65;1768616;80;21046;-79
2021/09/22 03:13:39;;;;;;;22.73;16.48;;;;;;;10.73;84.01;101178.50;1755666;81;22221;-79
2021/09/22 03:16:06;;;;;;;39.90;27.73;;;;;;;10.72;84.03;101176.81;1768011;81;21038;-79
2021/09/22 03:18:32;;;;;;;18.67;13.62;;;;;;;10.73;84.07;101178.50;1767913;81;21540;-79
2021/09/22 03:20:58;;;;;;;21.10;11.28;;;;;;;10.75;84.10;101178.69;1767892;81;21637;-78
2021/09/22 03:23:24;;;;;;;21.80;15.85;;;;;;;10.77;84.09;101185.19;1767872;79;21049;-79
2021/09/22 03:25:50;;;;;;;19.90;15.28;;;;;;;10.77;84.11;101187.85;1767444;81;20990;-78
2021/09/22 03:28:16;;;;;;;18.20;13.93;;;;;;;10.76;84.14;101194.20;1767662;81;20891;-79
2021/09/22 03:30:42;;;;;;;19.27;16.67;;;;;;;10.75;84.14;101193.84;1767480;81;20974;-78
2021/09/22 03:33:08;;;;;;;19.77;14.50;;;;;;;10.73;84.14;101193.98;1767272;81;21114;-79
2021/09/22 03:35:34;;;;;;;17.20;12.37;;;;;;;10.74;84.17;101197.50;1767354;81;21046;-79
2021/09/22 03:38:00;;;;;;;19.77;12.70;;;;;;;10.75;84.20;101192.52;1766896;81;21104;-79
2021/09/22 03:40:26;;;;;;;15.72;12.65;;;;;;;10.76;84.18;101194.20;1767455;81;21625;-79
2021/09/22 03:42:52;;;;;;;14.80;11.35;;;;;;;10.78;84.21;101194.88;1767308;81;21515;-79
2021/09/22 03:45:18;;;;;;;17.57;11.68;;;;;;;10.78;84.23;101193.05;1767136;81;21143;-79
2021/09/22 03:47:45;;;;;;;13.35;10.58;;;;;;;10.78;84.24;101190.38;1767314;81;21066;-79
2021/09/22 03:50:11;;;;;;;14.33;11.20;;;;;;;10.77;84.24;101190.52;1767223;81;21014;-79
2021/09/22 03:52:37;;;;;;;14.05;10.45;;;;;;;10.76;84.27;101191.53;1767360;81;21049;-78
2021/09/22 03:55:04;;;;;;;14.65;10.28;;;;;;;10.76;84.30;101191.05;1767532;81;20919;-79
2021/09/22 03:57:30;;;;;;;14.40;10.78;;;;;;;10.76;84.32;101188.87;1767209;81;21097;-79
2021/09/22 03:59:56;;;;;;;16.40;11.03;;;;;;;10.76;84.34;101191.53;1767170;81;21057;-79
2021/09/22 04:02:22;;;;;;;12.70;10.75;;;;;;;10.75;84.36;101185.84;1767414;81;21049;-79
2021/09/22 04:04:47;;;;;;;13.22;11.83;;;;;;;10.77;84.37;101193.19;1767369;81;20894;-79
2021/09/22 04:07:13;;;;;;;14.98;11.40;;;;;;;10.77;84.41;101195.86;1767373;81;20977;-79
2021/09/22 04:09:40;;;;;;;17.15;12.07;;;;;;;10.76;84.42;101195.05;1767317;81;21174;-79
2021/09/22 04:12:06;;;;;;;17.25;13.13;;;;;;;10.72;84.39;101196.33;1767029;81;21072;-79
2021/09/22 04:14:32;;;;;;;17.60;12.88;;;;;;;10.70;84.44;101200.12;1758365;81;21196;-79
2021/09/22 04:16:58;;;;;;;18.05;14.45;;;;;;;10.67;84.43;101209.77;1750621;82;20999;-79
2021/09/22 04:19:24;;;;;;;20.35;15.03;;;;;;;10.66;84.44;101214.78;1750746;82;21054;-79
2021/09/22 04:21:51;;;;;;;16.30;12.68;;;;;;;10.61;84.46;101218.38;1750601;82;20979;-79
2021/09/22 04:24:17;;;;;;;15.00;12.30;;;;;;;10.61;84.48;101226.37;1750590;82;21523;-79
2021/09/22 04:26:43;;;;;;;17.30;12.10;;;;;;;10.60;84.48;101226.02;1750699;82;20986;-79
2021/09/22 04:29:09;;;;;;;15.25;11.30;;;;;;;10.60;84.49;101230.02;1750723;82;21476;-79
2021/09/22 04:31:35;;;;;;;15.30;11.55;;;;;;;10.58;84.50;101234.68;1750770;82;21519;-79
2021/09/22 04:34:01;;;;;;;14.93;10.90;;;;;;;10.57;84.52;101238.33;1750346;82;21900;-79
2021/09/22 04:36:28;;;;;;;12.88;10.32;;;;;;;10.55;84.54;101238.98;1750424;82;21046;-79
2021/09/22 04:38:54;;;;;;;16.15;11.88;;;;;;;10.55;84.55;101236.31;1750618;81;21115;-79
2021/09/22 04:41:20;;;;;;;15.68;11.65;;;;;;;10.53;84.57;101242.63;1750607;82;21031;-79
2021/09/22 04:43:46;;;;;;;18.17;13.55;;;;;;;10.52;84.58;101242.77;1750610;82;21094;-79
2021/09/22 04:46:12;;;;;;;20.90;13.18;;;;;;;10.51;84.61;101244.63;1750566;82;21043;-79
2021/09/22 04:48:41;;;;;;;17.15;12.90;;;;;;;10.49;84.62;101247.91;1721501;82;21518;-79
2021/09/22 04:51:07;;;;;;;18.80;13.43;;;;;;;10.50;84.64;101260.76;1750738;82;21095;-79
2021/09/22 04:53:33;;;;;;;18.73;13.25;;;;;;;10.47;84.65;101259.23;1750454;82;21255;-79
2021/09/22 04:55:59;;;;;;;20.40;12.98;;;;;;;10.45;84.66;101263.02;1750610;82;21023;-80
2021/09/22 04:58:25;;;;;;;25.35;14.65;;;;;;;10.44;84.68;101264.03;1750666;82;21085;-79
2021/09/22 05:00:51;;;;;;;39.65;27.62;;;;;;;10.42;84.69;101269.49;1750504;82;20888;-79
2021/09/22 05:03:17;;;;;;;34.98;26.75;;;;;;;10.42;84.72;101267.31;1750508;82;21023;-80
2021/09/22 05:05:43;;;;;;;34.48;25.27;;;;;;;10.36;84.72;101271.42;1750765;82;21027;-79
2021/09/22 05:08:10;;;;;;;25.97;19.62;;;;;;;10.35;84.76;101275.06;1750411;80;21011;-79
2021/09/22 05:10:36;;;;;;;39.45;26.27;;;;;;;10.36;84.78;101264.75;1721215;82;21137;-79
2021/09/22 05:13:02;;;;;;;38.00;25.57;;;;;;;10.36;84.80;101267.91;1750462;82;20999;-79
2021/09/22 05:15:28;;;;;;;35.78;24.02;;;;;;;10.33;84.81;101273.05;1750293;81;21400;-79
2021/09/22 05:17:54;;;;;;;39.08;25.90;;;;;;;10.31;84.85;101277.67;1750603;82;21547;-79
2021/09/22 05:20:21;;;;;;;27.82;18.30;;;;;;;10.29;84.86;101288.14;1750811;81;21062;-79
2021/09/22 05:22:47;;;;;;;28.50;18.20;;;;;;;10.26;84.87;101293.28;1750655;82;21107;-79
2021/09/22 05:25:14;;;;;;;24.65;17.10;;;;;;;10.23;84.87;101300.25;1750588;82;20955;-79
2021/09/22 05:27:42;;;;;;;33.08;19.20;;;;;;;10.20;84.91;101293.88;1750719;82;20983;-79
2021/09/22 05:30:09;;;;;;;24.05;16.07;;;;;;;10.19;84.95;101302.85;1750448;81;21074;-79
2021/09/22 05:32:35;;;;;;;32.42;22.15;;;;;;;10.16;84.96;101304.48;1750591;82;21082;-79
2021/09/22 05:35:01;;;;;;;30.40;21.52;;;;;;;10.13;84.97;101311.41;1750080;82;21116;-79
2021/09/22 05:37:29;;;;;;;50.73;33.67;;;;;;;10.07;84.97;101310.63;1750537;80;21022;-79
2021/09/22 05:39:55;;;;;;;36.30;23.77;;;;;;;10.04;85.01;101315.77;1750686;81;21041;-79
2021/09/22 05:42:21;;;;;;;40.65;27.30;;;;;;;10.04;85.02;101317.58;1750604;82;21054;-79
2021/09/22 05:44:47;;;;;;;43.90;24.12;;;;;;;10.03;85.04;101321.22;1750634;82;21499;-79
2021/09/22 05:47:13;;;;;;;45.23;30.92;;;;;;;10.04;85.07;101324.25;1750166;82;21508;-79
2021/09/22 05:49:39;;;;;;;30.37;20.43;;;;;;;10.03;85.09;101324.73;1750525;81;21013;-79
2021/09/22 05:52:05;;;;;;;25.35;17.55;;;;;;;10.04;85.13;101326.42;1750501;82;21002;-79
2021/09/22 05:54:31;;;;;;;21.35;14.75;;;;;;;10.05;85.12;101339.26;1750352;82;21484;-79
2021/09/22 05:56:57;;;;;;;23.00;15.35;;;;;;;10.04;85.14;101344.23;1750672;82;21026;-79
2021/09/22 05:59:23;;;;;;;22.30;14.65;;;;;;;10.09;85.17;101357.98;1736358;82;21113;-79
2021/09/22 06:01:49;;;;;;;21.40;14.18;;;;;;;10.07;85.18;101357.27;1724479;82;21003;-79
2021/09/22 06:04:15;;;;;;;23.55;15.90;;;;;;;10.01;85.16;101364.02;1726861;82;21050;-79
2021/09/22 06:06:41;;;;;;;20.88;14.10;;;;;;;9.98;85.20;101360.80;1744595;81;21008;-79
2021/09/22 06:09:07;;;;;;;25.05;16.15;;;;;;;9.93;85.20;101354.56;1748907;82;21547;-79
2021/09/22 06:11:33;;;;;;;31.12;20.85;;;;;;;9.94;85.24;101359.40;1750131;82;21710;-79
2021/09/22 06:13:59;;;;;;;28.45;19.07;;;;;;;9.95;85.21;101358.42;1750393;81;20995;-79
2021/09/22 06:16:26;;;;;;;33.02;19.85;;;;;;;9.97;85.24;101366.62;1750535;81;21034;-79
2021/09/22 06:18:52;;;;;;;32.17;22.22;;;;;;;9.96;85.26;101376.07;1750512;81;21049;-79
2021/09/22 06:21:18;;;;;;;33.67;22.95;;;;;;;9.97;85.25;101375.95;1750424;82;21018;-79
2021/09/22 06:23:44;;;;;;;30.27;19.67;;;;;;;9.94;85.23;101376.23;1750507;81;21135;-79
2021/09/22 06:26:10;;;;;;;34.00;22.98;;;;;;;10.01;85.25;101387.16;1750467;82;21003;-79
2021/09/22 06:28:36;;;;;;;28.30;19.40;;;;;;;10.01;85.24;101398.66;1750257;82;21565;-79
2021/09/22 06:31:03;;;;;;;27.30;17.77;;;;;;;10.05;85.23;101384.56;1750491;82;20970;-79
2021/09/22 06:33:29;;;;;;;24.65;16.80;;;;;;;10.04;85.23;101390.88;1750420;82;21023;-79
2021/09/22 06:35:59;;;;;;;25.62;18.00;;;;;;;10.05;85.22;101396.56;1750416;82;21034;-80
2021/09/22 06:38:23;;;;;;;27.25;16.97;;;;;;;10.11;85.22;101401.31;1749677;82;21062;-79
2021/09/22 06:40:49;;;;;;;26.07;17.90;;;;;;;10.13;85.21;101401.19;1750417;82;21058;-79
2021/09/22 06:43:15;;;;;;;29.50;16.85;;;;;;;10.12;85.20;101404.34;1749223;81;21058;-79
2021/09/22 06:45:41;;;;;;;29.10;19.23;;;;;;;10.13;85.19;101404.69;1736115;82;20923;-80
2021/09/22 06:48:07;;;;;;;30.60;20.12;;;;;;;10.13;85.17;101415.35;1736001;82;21047;-80
2021/09/22 06:50:33;;;;;;;32.55;20.77;;;;;;;10.14;85.16;101409.05;1732813;82;21125;-79
2021/09/22 06:52:59;;;;;;;29.85;21.45;;;;;;;10.16;85.15;101418.25;1745944;82;21524;-80
2021/09/22 06:55:25;;;;;;;31.97;22.27;;;;;;;10.18;85.15;101411.78;1682372;85;21084;-79
2021/09/22 06:57:51;;;;;;;28.98;19.57;;;;;;;10.18;85.12;101413.12;1702712;84;21006;-80
2021/09/22 07:00:17;;;;;;;26.48;17.82;;;;;;;10.23;85.13;101418.88;1691314;84;21127;-79
2021/09/22 07:02:43;;;;;;;27.65;18.70;;;;;;;10.30;85.12;101419.98;1703068;83;21031;-80
2021/09/22 07:05:11;;;;;;;26.15;18.67;;;;;;;10.33;85.08;101422.36;1681499;84;21002;-79
2021/09/22 07:07:37;;;;;;;25.62;17.07;;;;;;;10.39;85.08;101423.60;1682620;84;21049;-79
2021/09/22 07:10:04;;;;;;;24.95;16.95;;;;;;;10.45;85.04;101421.20;1677547;84;21046;-80
2021/09/22 07:12:31;;;;;;;25.72;18.40;;;;;;;10.50;85.02;101424.28;1671156;85;21141;-80
2021/09/22 07:14:58;;;;;;;25.55;18.48;;;;;;;10.51;85.02;101425.13;1669100;85;21007;-79
2021/09/22 07:17:24;;;;;;;25.17;18.07;;;;;;;10.57;84.99;101427.22;1663827;86;21042;-80
2021/09/22 07:19:50;;;;;;;28.98;18.60;;;;;;;10.60;84.94;101430.07;1674683;84;20992;-80
2021/09/22 07:22:16;;;;;;;55.40;29.37;;;;;;;10.68;84.91;101434.20;1690769;84;21082;-80
2021/09/22 07:24:42;;;;;;;25.23;18.20;;;;;;;10.73;84.87;101441.30;1690891;84;21180;-80
2021/09/22 07:27:08;;;;;;;23.85;16.25;;;;;;;10.73;84.82;101448.77;1686288;84;21023;-80
2021/09/22 07:29:34;;;;;;;20.95;14.10;;;;;;;10.68;84.77;101451.55;1681136;84;21540;-80
2021/09/22 07:32:00;;;;;;;18.30;13.00;;;;;;;10.65;84.74;101455.34;1664622;85;21538;-80
2021/09/22 07:34:26;;;;;;;18.05;13.05;;;;;;;10.63;84.71;101457.79;1670861;84;21023;-80
2021/09/22 07:36:53;;;;;;;21.73;13.85;;;;;;;10.67;84.68;101463.19;1666024;84;21167;-80
2021/09/22 07:39:20;;;;;;;22.93;15.10;;;;;;;10.70;84.61;101466.89;1667973;84;21548;-79
2021/09/22 07:41:46;;;;;;;22.02;14.93;;;;;;;10.71;84.57;101469.44;1692095;84;21547;-80
2021/09/22 07:44:11;;;;;;;22.00;15.38;;;;;;;10.66;84.48;101466.34;1692419;84;21997;-80
2021/09/22 07:46:38;;;;;;;22.75;16.02;;;;;;;10.65;84.46;101469.17;1681761;84;21038;-80
2021/09/22 07:49:04;;;;;;;25.37;15.88;;;;;;;10.63;84.42;101469.80;1666895;84;21499;-80
2021/09/22 07:51:30;;;;;;;26.30;16.95;;;;;;;10.62;84.41;101472.14;1666025;84;21499;-80
2021/09/22 07:53:56;;;;;;;40.05;23.30;;;;;;;10.59;84.35;101481.77;1682874;84;21047;-80
2021/09/22 07:56:22;;;;;;;32.10;20.77;;;;;;;10.59;84.32;101491.09;1681399;84;21015;-80
2021/09/22 07:58:48;;;;;;;26.93;17.45;;;;;;;10.58;84.27;101490.25;1681824;84;21030;-80
2021/09/22 08:01:14;;;;;;;130.32;82.27;;;;;;;10.58;84.24;101492.07;1689254;85;21156;-80
2021/09/22 08:03:40;;;;;;;30.37;18.95;;;;;;;10.64;84.24;101491.49;1690579;84;21043;-80
2021/09/22 08:06:07;;;;;;;34.50;26.75;;;;;;;10.71;84.23;101500.60;1673838;84;21082;-80
2021/09/22 08:08:33;;;;;;;23.02;14.98;;;;;;;10.73;84.19;101498.66;1686452;84;21007;-79
2021/09/22 08:11:00;;;;;;;20.80;14.50;;;;;;;10.78;84.17;101503.05;1688896;84;21015;-79
2021/09/22 08:13:26;;;;;;;22.77;15.32;;;;;;;10.76;84.08;101503.70;1689823;84;21181;-79
2021/09/22 08:15:53;;;;;;;22.52;14.28;;;;;;;10.74;84.07;101505.64;1678979;84;21947;-79
2021/09/22 08:18:19;;;;;;;19.70;13.78;;;;;;;10.73;84.01;101514.66;1690126;84;21057;-79
2021/09/22 08:20:45;;;;;;;18.70;13.05;;;;;;;10.71;84.00;101524.61;1696719;84;21136;-79
2021/09/22 08:23:11;;;;;;;17.52;12.45;;;;;;;10.69;83.96;101523.93;1680631;84;21034;-79
2021/09/22 08:25:37;;;;;;;18.52;13.68;;;;;;;10.68;83.90;101523.57;1700617;83;21138;-80
2021/09/22 08:28:03;;;;;;;16.12;12.20;;;;;;;10.72;83.90;101530.31;1699748;84;20998;-79
2021/09/22 08:30:29;;;;;;;18.23;11.48;;;;;;;10.72;83.84;101524.97;1697881;84;21012;-79
2021/09/22 08:32:56;;;;;;;14.68;9.80;;;;;;;10.70;83.80;101530.44;1687469;85;21090;-79
2021/09/22 08:35:22;;;;;;;13.48;10.25;;;;;;;10.75;83.75;101528.20;1699573;84;21483;-80
2021/09/22 08:37:48;;;;;;;10.93;8.33;;;;;;;10.80;83.68;101525.11;1699719;84;21170;-79
2021/09/22 08:40:14;;;;;;;10.50;8.35;;;;;;;10.85;83.67;101517.50;1699867;84;20879;-80
2021/09/22 08:42:40;;;;;;;9.08;6.85;;;;;;;10.89;83.63;101523.74;1691250;84;21055;-80
2021/09/22 08:45:10;;;;;;;11.20;7.62;;;;;;;10.95;83.56;101523.16;1698207;84;21023;-80
2021/09/22 08:47:36;;;;;;;14.83;8.70;;;;;;;10.94;83.48;101528.66;1687449;85;21103;-79
2021/09/22 08:50:03;;;;;;;17.60;11.20;;;;;;;11.00;83.46;101530.73;1698076;84;21153;-80
2021/09/22 08:52:29;;;;;;;24.47;13.35;;;;;;;11.02;83.38;101537.61;1699682;84;21071;-80
2021/09/22 08:54:56;;;;;;;20.70;11.00;;;;;;;11.02;83.33;101533.60;1699799;84;21579;-79
2021/09/22 08:57:22;;;;;;;18.00;12.60;;;;;;;10.98;83.23;101532.69;1698446;84;21046;-79
2021/09/22 08:59:48;;;;;;;14.78;11.35;;;;;;;10.90;83.18;101539.27;1694011;84;21010;-78
2021/09/22 09:02:16;;;;;;;24.70;17.42;;;;;;;10.86;83.17;101542.72;1678119;84;21601;-78
2021/09/22 09:04:44;;;;;;;19.67;14.45;;;;;;;10.83;83.10;101543.49;1675839;83;21630;-79
2021/09/22 09:07:10;;;;;;;18.07;10.80;;;;;;;10.82;83.07;101549.32;1671216;85;21027;-79
2021/09/22 09:09:40;;;;;;;13.00;9.48;;;;;;;10.81;83.05;101544.11;1671816;84;21436;-78
2021/09/22 09:12:21;;;;;;;15.17;10.70;;;;;;;10.87;82.96;101541.70;1671669;85;21034;-79
2021/09/22 09:14:56;;;;;;;18.40;12.18;;;;;;;10.87;82.96;101541.70;1677143;84;21317;-79
2021/09/22 09:17:44;;;;;;;26.20;16.12;;;;;;;10.93;82.91;101538.48;1692004;83;20995;-80
2021/09/22 09:20:21;;;;;;;62.17;36.40;;;;;;;11.01;82.88;101539.11;1692478;84;21067;-80
2021/09/22 09:23:07;;;;;;;24.25;14.43;;;;;;;11.13;82.81;101540.59;1691294;84;21079;-79
2021/09/22 09:26:00;;;;;;;15.03;10.58;;;;;;;11.28;82.76;101539.14;1692260;84;21484;-79
2021/09/22 09:28:31;;;;;;;15.53;9.60;;;;;;;11.42;82.68;101528.47;1693219;84;21174;-79
2021/09/22 09:31:02;;;;;;;11.28;8.25;;;;;;;11.68;82.63;101536.64;1694050;84;21761;-81
2021/09/22 09:33:36;;;;;;;10.93;8.38;;;;;;;11.87;82.53;101534.72;1684444;84;21026;-79
2021/09/22 09:36:35;;;;;;;12.93;8.08;;;;;;;11.98;82.44;101530.98;1665817;86;21545;-79
2021/09/22 09:39:08;;;;;;;9.63;7.10;;;;;;;12.03;82.34;101533.22;1690685;84;21007;-80
2021/09/22 09:41:45;;;;;;;10.40;7.72;;;;;;;11.96;82.25;101532.98;1676239;85;21800;-80
2021/09/22 09:44:12;;;;;;;8.90;6.90;;;;;;;12.09;82.15;101531.27;1661408;84;21007;-80
2021/09/22 09:46:38;;;;;;;9.03;7.00;;;;;;;12.20;82.00;101530.55;1690722;84;21114;-80
2021/09/22 09:49:13;;;;;;;9.05;7.03;;;;;;;12.23;81.93;101531.58;1681029;84;21325;-80
2021/09/22 09:51:44;;;;;;;10.50;7.10;;;;;;;12.17;81.74;101534.87;1692369;84;21456;-80
2021/09/22 09:54:17;;;;;;;11.18;7.70;;;;;;;12.21;81.60;101534.08;1693764;84;21152;-79
2021/09/22 09:56:44;;;;;;;11.55;7.70;;;;;;;12.24;81.48;101526.59;1693974;84;21078;-79
2021/09/22 09:59:10;;;;;;;19.65;8.70;;;;;;;12.31;81.31;101522.30;1694098;84;21073;-80
2021/09/22 10:01:40;;;;;;;13.00;8.75;;;;;;;12.35;81.17;101526.33;1693636;84;20931;-80
2021/09/22 10:04:07;;;;;;;9.80;6.37;;;;;;;12.33;81.10;101522.98;1671323;85;21102;-80
2021/09/22 10:06:33;;;;;;;9.55;7.17;;;;;;;12.33;80.96;101531.00;1679884;84;21023;-79
2021/09/22 10:08:59;;;;;;;10.78;7.83;;;;;;;12.28;80.87;101525.26;1690762;84;20999;-80
2021/09/22 10:11:25;;;;;;;14.30;7.55;;;;;;;12.22;80.78;101532.56;1685144;83;21449;-80
2021/09/22 10:13:52;;;;;;;11.78;7.72;;;;;;;12.15;80.67;101532.83;1693894;84;21363;-79
2021/09/22 10:16:19;;;;;;;17.70;10.82;;;;;;;12.17;80.56;101535.37;1683524;83;21547;-79
2021/09/22 10:18:48;;;;;;;14.15;8.33;;;;;;;12.14;80.44;101532.48;1665934;86;21030;-80
2021/09/22 10:21:16;;;;;;;13.05;8.18;;;;;;;12.11;80.30;101534.13;1683213;84;21014;-79
2021/09/22 10:23:43;;;;;;;17.05;8.25;;;;;;;12.01;80.21;101538.21;1719573;83;21047;-80
2021/09/22 10:26:09;;;;;;;15.43;7.53;;;;;;;11.96;80.17;101542.34;1719496;83;21026;-80
2021/09/22 10:28:41;;;;;;;16.40;9.45;;;;;;;11.94;80.13;101537.63;1674553;84;20987;-80
2021/09/22 10:31:34;;;;;;;11.83;8.08;;;;;;;11.94;80.07;101536.29;1690658;84;21223;-79
2021/09/22 10:34:00;;;;;;;18.90;11.22;;;;;;;11.93;79.98;101530.59;1673060;84;20963;-79
2021/09/22 10:36:39;;;;;;;12.53;8.95;;;;;;;11.97;79.96;101531.97;1665963;86;21530;-79
2021/09/22 10:39:08;;;;;;;16.97;9.50;;;;;;;12.09;79.89;101537.45;1665437;84;21044;-79
2021/09/22 10:41:41;;;;;;;14.33;8.35;;;;;;;12.20;79.88;101529.22;1672296;84;21074;-80
2021/09/22 10:44:14;;;;;;;11.20;8.00;;;;;;;12.27;79.80;101523.60;1700942;83;21236;-79
2021/09/22 10:46:40;;;;;;;12.43;8.88;;;;;;;12.38;79.79;101511.83;1677682;84;20963;-80
2021/09/22 10:49:09;;;;;;;15.20;9.53;;;;;;;12.57;79.73;101516.14;1692216;83;20982;-79
2021/09/22 10:51:45;;;;;;;13.95;9.55;;;;;;;12.71;79.67;101518.25;1669893;84;21075;-80
2021/09/22 10:54:22;;;;;;;11.93;9.48;;;;;;;12.95;79.63;101511.23;1670291;84;21464;-79
2021/09/22 10:57:02;;;;;;;13.40;10.08;;;;;;;13.18;79.55;101508.89;1689661;84;21023;-79
2021/09/22 10:59:38;;;;;;;18.48;12.33;;;;;;;13.24;79.37;101506.91;1672546;84;21530;-79
2021/09/22 11:02:09;;;;;;;21.27;12.63;;;;;;;13.34;79.28;101506.28;1683402;83;21567;-79
2021/09/22 11:05:00;;;;;;;16.32;12.90;;;;;;;13.57;79.15;101512.41;1676007;84;21110;-79
2021/09/22 11:08:03;;;;;;;16.45;12.37;;;;;;;13.75;78.97;101511.80;1675655;84;21038;-79
2021/09/22 11:10:45;;;;;;;12.37;10.00;;;;;;;13.77;78.76;101515.99;1681181;84;21406;-79
2021/09/22 11:13:26;;;;;;;16.45;11.22;;;;;;;13.78;78.54;101516.84;1669310;84;21082;-79
2021/09/22 11:15:54;;;;;;;15.75;11.50;;;;;;;13.65;78.36;101520.48;1693772;83;20999;-79
2021/09/22 11:18:21;;;;;;;14.80;10.20;;;;;;;13.60;78.15;101520.12;1694051;84;21043;-79
2021/09/22 11:20:59;;;;;;;16.75;10.28;;;;;;;13.62;78.09;101512.75;1683843;84;21061;-78